Date,TemperatureHighF,TemperatureAvgF,TemperatureLowF,DewpointHighF,DewpointAvgF,DewpointLowF,HumidityHigh,HumidityAvg,HumidityLow,PressureMaxIn,PressureMinIn,WindSpeedMaxMPH,WindSpeedAvgMPH,GustSpeedMaxMPH,PrecipitationSumIn
2012-12-1,81.0,65.3,52.0,61.0,57.0,51.0,97,77,41,30.20,30.11,9,5,19,0.00
2012-12-2,83.0,66.9,53.0,65.0,59.2,52.0,98,79,40,30.23,30.12,9,4,19,0.00
2012-12-3,80.0,65.5,46.0,64.0,57.9,45.0,98,79,48,30.24,30.13,8,4,17,0.00
2012-12-4,79.0,62.3,44.0,62.0,55.1,43.0,98,79,48,30.24,30.14,10,4,19,0.00
2012-12-5,78.0,64.0,48.0,66.0,59.3,47.0,98,85,60,30.16,30.02,7,3,12,0.00
2012-12-6,80.0,66.7,59.0,67.0,60.8,-99.9,97,85,59,30.03,29.90,5,3,12,0.00
2012-12-7,60.0,58.1,57.0,59.0,57.6,57.0,97,97,96,29.93,29.93,2,1,3,0.00
2012-12-10,85.0,81.9,81.0,74.0,72.6,72.0,77,73,68,29.96,29.91,11,10,19,0.00
2012-12-11,82.0,74.0,69.0,74.0,70.9,68.0,98,90,72,29.98,29.90,10,3,17,0.00
2012-12-12,79.0,73.3,67.0,74.0,71.5,66.0,98,94,83,30.02,29.90,10,4,18,0.00
2012-12-13,71.0,67.6,62.0,70.0,64.5,58.0,98,89,80,30.13,29.98,8,5,51,0.00
2012-12-14,77.0,64.6,57.0,63.0,58.8,56.0,97,82,56,30.17,30.04,9,6,43,0.00
2012-12-15,80.0,66.7,57.0,66.0,60.9,57.0,98,83,54,30.11,29.99,7,4,14,0.00
2012-12-16,82.0,66.8,54.0,67.0,61.3,53.0,98,84,54,30.03,29.90,7,3,13,0.00
2012-12-17,81.0,67.8,56.0,69.0,63.1,56.0,98,86,59,29.95,29.85,11,4,18,0.00
2012-12-18,81.0,67.8,59.0,71.0,63.8,58.0,98,88,62,29.97,29.83,10,3,20,0.00
2012-12-19,82.0,63.6,52.0,64.0,56.7,51.0,98,81,48,30.05,29.94,6,2,10,0.00
2012-12-20,82.0,64.6,51.0,68.0,58.5,50.0,98,83,49,30.06,29.89,11,4,20,0.00
2012-12-21,68.0,61.4,50.0,67.0,48.9,37.0,98,66,34,30.19,29.81,11,7,31,0.00
2012-12-22,65.0,45.8,29.0,40.0,32.7,25.0,97,68,22,30.27,30.19,9,4,19,0.00
2012-12-23,72.0,47.7,27.0,54.0,39.6,26.0,97,77,45,30.25,30.12,6,2,12,0.00
2012-12-24,76.0,57.6,41.0,59.0,50.7,33.0,97,80,51,30.15,29.94,9,3,17,0.00
2012-12-26,80.0,72.8,62.0,71.0,66.4,55.0,98,80,68,29.97,29.75,14,9,29,0.00
2012-12-27,70.0,52.9,38.0,55.0,44.9,36.0,98,78,39,30.06,29.91,5,3,10,0.00
2012-12-28,79.0,61.9,37.0,69.0,56.3,36.0,98,83,61,30.06,29.84,8,4,34,0.00
2012-12-29,80.0,71.0,58.0,72.0,66.8,52.0,97,87,69,30.17,29.85,12,7,30,0.00
2012-12-30,63.0,52.9,44.0,52.0,44.0,35.0,88,72,48,30.32,30.17,11,6,20,0.00
2012-12-31,77.0,57.6,44.0,58.0,50.1,43.0,97,79,48,30.31,30.18,9,4,20,0.00